Time;durP1;ratioP1;P1;durP2;ratioP2;P2;SDS_P1;SDS_P2;PMS_P1;PMS_P2;Temp;Humidity;BMP_temperature;BMP_pressure;BME280_temperature;BME280_humidity;BME280_pressure;Samples;Min_cycle;Max_cycle;Signal;HPM_P1;HPM_P2
2021/07/27 00:00:37;;;;;;;23.10;15.93;;;20.30;99.90;;;;;;5013544;28;20077;-43
2021/07/27 00:03:03;;;;;;;27.58;17.83;;;20.30;99.90;;;;;;5015793;28;20070;-43
2021/07/27 00:05:30;;;;;;;23.25;16.48;;;20.30;99.90;;;;;;5015020;28;20071;-38
2021/07/27 00:07:56;;;;;;;24.10;16.88;;;20.30;99.90;;;;;;5013597;28;20037;-40
2021/07/27 00:10:23;;;;;;;23.92;15.88;;;20.30;99.90;;;;;;5018714;28;20025;-40
2021/07/27 00:12:49;;;;;;;20.40;14.93;;;20.20;99.90;;;;;;5010029;28;20034;-42
2021/07/27 00:15:14;;;;;;;25.98;16.30;;;20.30;99.90;;;;;;5021185;28;20026;-38
2021/07/27 00:17:40;;;;;;;23.77;16.20;;;20.20;99.90;;;;;;5010459;28;20033;-43
2021/07/27 00:20:09;;;;;;;19.73;14.02;;;20.20;99.90;;;;;;5020300;28;20076;-38
2021/07/27 00:22:39;;;;;;;24.52;17.00;;;20.30;99.90;;;;;;5012399;28;20053;-37
2021/07/27 00:25:05;;;;;;;25.80;17.77;;;20.20;99.90;;;;;;5016156;28;20029;-41
2021/07/27 00:27:34;;;;;;;23.05;16.08;;;20.20;99.90;;;;;;5027702;28;20480;-43
2021/07/27 00:29:59;;;;;;;26.33;16.55;;;20.20;99.90;;;;;;5016373;28;20026;-40
2021/07/27 00:32:25;;;;;;;28.95;18.98;;;20.30;99.90;;;;;;5028808;28;20037;-42
2021/07/27 00:34:54;;;;;;;25.83;17.83;;;20.20;99.90;;;;;;5015588;28;20042;-43
2021/07/27 00:37:26;;;;;;;26.42;18.40;;;20.20;99.90;;;;;;4989795;28;20113;-40
2021/07/27 00:39:52;;;;;;;26.25;17.73;;;20.20;99.90;;;;;;5014776;28;20523;-42
2021/07/27 00:42:17;;;;;;;33.13;21.77;;;20.20;99.90;;;;;;5010697;28;20058;-42
2021/07/27 00:44:44;;;;;;;30.88;22.00;;;20.20;99.90;;;;;;5016370;28;20029;-38
2021/07/27 00:47:09;;;;;;;33.75;22.67;;;20.20;99.90;;;;;;5013335;28;20057;-37
2021/07/27 00:49:35;;;;;;;33.30;22.80;;;20.10;99.90;;;;;;5014384;28;20053;-42
2021/07/27 00:52:02;;;;;;;32.15;22.52;;;20.10;99.90;;;;;;5015906;28;20029;-41
2021/07/27 00:54:27;;;;;;;28.70;20.00;;;20.10;99.90;;;;;;4993629;28;20018;-37
2021/07/27 00:56:54;;;;;;;24.95;18.30;;;20.20;99.90;;;;;;5017862;28;20425;-40
2021/07/27 00:59:19;;;;;;;27.48;19.58;;;20.20;99.90;;;;;;5010402;28;20052;-40
2021/07/27 01:01:45;;;;;;;27.40;18.48;;;20.20;99.90;;;;;;5019039;28;20053;-42
2021/07/27 01:04:10;;;;;;;24.35;16.95;;;20.20;99.90;;;;;;5010700;28;20088;-42
2021/07/27 01:06:36;;;;;;;28.33;18.77;;;20.20;99.90;;;;;;5019179;28;20046;-40
2021/07/27 01:09:02;;;;;;;29.38;19.77;;;20.20;99.90;;;;;;5008641;28;20096;-43
2021/07/27 01:11:28;;;;;;;32.45;20.42;;;20.20;99.90;;;;;;5020630;28;20045;-41
2021/07/27 01:13:53;;;;;;;36.28;23.75;;;20.20;99.90;;;;;;5008312;28;20029;-39
2021/07/27 01:16:23;;;;;;;36.63;23.52;;;20.20;99.90;;;;;;5019607;28;20030;-43
2021/07/27 01:38:50;;;;;;;29.75;19.77;;;20.10;99.90;;;;;;5019807;28;20040;-41
2021/07/27 01:43:43;;;;;;;33.05;22.08;;;20.00;99.90;;;;;;5021185;28;20034;-43
2021/07/27 01:46:10;;;;;;;28.08;19.15;;;20.00;99.90;;;;;;5026924;28;20445;-40
2021/07/27 01:48:37;;;;;;;30.05;21.48;;;20.00;99.90;;;;;;5022683;28;20503;-40
2021/07/27 01:51:05;;;;;;;31.90;20.42;;;20.00;99.90;;;;;;5030098;28;20115;-43
2021/07/27 01:53:34;;;;;;;33.88;21.67;;;20.00;99.90;;;;;;5020605;28;20048;-43
2021/07/27 01:56:00;;;;;;;31.90;22.80;;;20.00;99.90;;;;;;5030804;28;20021;-39
2021/07/27 01:58:26;;;;;;;33.65;21.98;;;19.90;99.90;;;;;;5019917;28;20028;-39
2021/07/27 02:00:52;;;;;;;30.98;21.50;;;19.90;99.90;;;;;;5031967;28;20101;-41
2021/07/27 02:03:20;;;;;;;28.92;21.55;;;19.90;99.90;;;;;;5019732;28;20021;-41
2021/07/27 02:05:45;;;;;;;31.40;20.90;;;19.90;99.90;;;;;;5030399;28;20055;-39
2021/07/27 02:08:11;;;;;;;30.15;20.63;;;19.90;99.90;;;;;;5019549;28;20116;-43
2021/07/27 02:10:38;;;;;;;33.40;22.48;;;19.80;99.90;;;;;;5031349;28;20061;-40
2021/07/27 02:13:11;;;;;;;28.48;20.25;;;19.90;99.90;;;;;;5019312;28;20030;-42
2021/07/27 02:15:43;;;;;;;23.83;18.30;;;19.80;99.90;;;;;;4992403;28;20093;-41
2021/07/27 02:18:09;;;;;;;26.85;19.35;;;19.80;99.90;;;;;;5017705;28;20018;-36
2021/07/27 02:20:38;;;;;;;29.58;21.17;;;19.80;99.90;;;;;;5012475;28;20026;-42
2021/07/27 02:23:05;;;;;;;30.15;22.17;;;19.80;99.90;;;;;;5015046;28;20040;-39
2021/07/27 02:25:32;;;;;;;31.95;21.75;;;19.80;99.90;;;;;;5011075;28;20022;-41
2021/07/27 02:27:58;;;;;;;31.98;21.67;;;19.80;99.90;;;;;;5017192;28;20050;-43
2021/07/27 02:30:33;;;;;;;29.95;20.73;;;19.80;99.90;;;;;;5025018;28;20615;-42
2021/07/27 02:32:59;;;;;;;34.65;21.15;;;19.80;99.90;;;;;;5024916;28;20034;-41
2021/07/27 02:35:30;;;;;;;30.40;21.65;;;19.80;99.90;;;;;;5024344;28;20018;-40
2021/07/27 02:37:59;;;;;;;27.77;19.77;;;19.90;99.90;;;;;;5027125;28;20029;-40
2021/07/27 02:40:24;;;;;;;29.70;19.60;;;19.90;99.90;;;;;;5020929;28;20120;-41
2021/07/27 02:42:52;;;;;;;35.40;24.23;;;19.90;99.90;;;;;;5029382;28;20125;-40
2021/07/27 02:45:24;;;;;;;36.47;25.50;;;19.80;99.90;;;;;;5010714;28;20014;-41
2021/07/27 02:47:50;;;;;;;39.58;26.33;;;19.80;99.90;;;;;;5029012;28;20044;-43
2021/07/27 02:50:15;;;;;;;44.42;29.48;;;19.70;99.90;;;;;;5020257;28;20465;-41
2021/07/27 02:52:44;;;;;;;41.72;27.63;;;19.70;99.90;;;;;;5029639;28;20327;-40
2021/07/27 02:55:12;;;;;;;41.00;29.83;;;19.60;99.90;;;;;;5019090;28;20759;-38
2021/07/27 02:57:39;;;;;;;42.63;30.35;;;19.50;99.90;;;;;;5030284;28;20109;-42
2021/07/27 03:00:09;;;;;;;38.72;27.65;;;19.30;99.90;;;;;;5018197;28;20025;-41
2021/07/27 03:02:38;;;;;;;35.20;24.85;;;19.30;99.90;;;;;;5029830;28;20534;-41
2021/07/27 03:05:05;;;;;;;38.22;26.33;;;19.20;99.90;;;;;;5018153;28;20137;-40
2021/07/27 03:07:37;;;;;;;36.17;25.85;;;19.20;99.90;;;;;;5030211;28;20132;-40
2021/07/27 03:10:21;;;;;;;39.33;26.63;;;19.20;99.90;;;;;;5017709;28;20018;-40
2021/07/27 03:12:56;;;;;;;39.47;28.13;;;19.10;99.90;;;;;;4991668;28;20042;-43
2021/07/27 03:15:26;;;;;;;36.55;25.85;;;19.20;99.90;;;;;;5019824;28;20053;-38
2021/07/27 03:17:56;;;;;;;38.97;27.15;;;19.20;99.90;;;;;;5010807;28;20061;-42
2021/07/27 03:20:23;;;;;;;33.45;24.20;;;19.20;99.90;;;;;;5022595;28;20071;-42
2021/07/27 03:22:52;;;;;;;33.53;24.48;;;19.20;99.90;;;;;;5013546;28;20036;-44
2021/07/27 03:25:19;;;;;;;35.28;24.65;;;19.30;99.90;;;;;;5020379;28;20421;-43
2021/07/27 03:27:49;;;;;;;35.85;25.58;;;19.30;99.90;;;;;;5028061;28;20048;-39
2021/07/27 03:30:16;;;;;;;36.20;26.17;;;19.40;99.90;;;;;;5020626;28;20014;-40
2021/07/27 03:32:43;;;;;;;35.40;25.88;;;19.40;99.90;;;;;;5024765;28;20053;-37
2021/07/27 03:35:14;;;;;;;37.58;27.75;;;19.40;99.90;;;;;;5023733;28;20014;-41
2021/07/27 03:37:40;;;;;;;38.60;27.10;;;19.40;99.90;;;;;;5023817;28;20025;-42
2021/07/27 03:40:06;;;;;;;41.97;30.02;;;19.50;99.90;;;;;;5025889;28;20033;-43
2021/07/27 03:42:38;;;;;;;36.97;27.40;;;19.40;99.90;;;;;;5021994;28;20041;-42
2021/07/27 03:45:04;;;;;;;40.63;27.50;;;19.50;99.90;;;;;;5026967;28;20544;-40
2021/07/27 03:47:29;;;;;;;35.40;26.10;;;19.40;99.90;;;;;;5019743;28;20489;-42
2021/07/27 03:49:55;;;;;;;38.83;26.02;;;19.50;99.90;;;;;;5028821;28;20014;-42
2021/07/27 03:52:21;;;;;;;35.15;25.73;;;19.50;99.90;;;;;;5019014;28;20116;-42
2021/07/27 03:54:46;;;;;;;35.55;26.27;;;19.50;99.90;;;;;;5028782;28;20025;-43
2021/07/27 03:57:12;;;;;;;38.45;28.42;;;19.50;99.90;;;;;;5017212;28;20029;-41
2021/07/27 03:59:37;;;;;;;35.20;24.90;;;19.50;99.90;;;;;;5029000;28;20485;-41
2021/07/27 04:02:03;;;;;;;35.88;26.98;;;19.50;99.90;;;;;;5016686;28;20018;-38
2021/07/27 04:04:33;;;;;;;41.85;29.77;;;19.40;99.90;;;;;;5029346;28;20025;-40
2021/07/27 04:06:59;;;;;;;35.95;26.95;;;19.40;99.90;;;;;;5017029;28;20054;-41
2021/07/27 04:09:25;;;;;;;35.47;25.98;;;19.40;99.90;;;;;;5028700;28;20025;-40
2021/07/27 04:11:53;;;;;;;44.45;32.10;;;19.40;99.90;;;;;;5019453;28;20030;-41
2021/07/27 04:14:19;;;;;;;39.90;29.92;;;19.30;99.90;;;;;;5027265;28;20059;-39
2021/07/27 04:16:44;;;;;;;38.08;28.58;;;19.30;99.90;;;;;;5021726;28;20030;-41
2021/07/27 04:19:10;;;;;;;36.67;28.52;;;19.30;99.90;;;;;;5024126;28;20026;-40
2021/07/27 04:21:35;;;;;;;36.42;28.40;;;19.30;99.90;;;;;;5023832;28;20010;-42
2021/07/27 04:24:01;;;;;;;32.15;25.85;;;19.30;99.90;;;;;;5009984;28;20022;-40
2021/07/27 04:26:30;;;;;;;35.17;28.08;;;19.30;99.90;;;;;;5011038;28;20107;-41
2021/07/27 04:28:56;;;;;;;32.90;24.52;;;19.30;99.90;;;;;;5019449;28;20037;-40
2021/07/27 04:31:22;;;;;;;33.25;23.70;;;19.20;99.90;;;;;;5010073;28;20385;-38
2021/07/27 04:33:48;;;;;;;32.97;25.45;;;19.20;99.90;;;;;;5019479;28;20472;-42
2021/07/27 04:36:14;;;;;;;36.55;25.10;;;19.20;99.90;;;;;;5010785;28;20032;-40
2021/07/27 04:38:42;;;;;;;28.83;21.88;;;19.20;99.90;;;;;;5019862;28;20084;-41
2021/07/27 04:41:11;;;;;;;29.00;21.48;;;19.30;99.90;;;;;;5009377;28;20026;-38
2021/07/27 04:43:37;;;;;;;32.42;23.17;;;19.30;99.90;;;;;;5021430;28;20049;-41
2021/07/27 04:46:05;;;;;;;24.77;19.42;;;19.30;99.90;;;;;;5009484;28;20033;-41
2021/07/27 04:48:31;;;;;;;29.33;21.92;;;19.30;99.90;;;;;;5020584;28;20063;-37
2021/07/27 04:50:59;;;;;;;22.60;18.17;;;19.30;99.90;;;;;;5009332;28;20062;-41
2021/07/27 04:53:25;;;;;;;26.17;20.80;;;19.30;99.90;;;;;;5020310;28;20032;-41
2021/07/27 04:55:52;;;;;;;25.55;19.90;;;19.30;99.90;;;;;;5009101;28;20018;-39
2021/07/27 04:58:17;;;;;;;27.65;21.88;;;19.20;99.90;;;;;;5017911;28;20068;-41
2021/07/27 05:00:43;;;;;;;27.17;21.30;;;19.20;99.90;;;;;;5012423;28;20366;-39
2021/07/27 05:03:09;;;;;;;23.83;19.15;;;19.20;99.90;;;;;;5015176;28;20053;-42
2021/07/27 05:05:35;;;;;;;25.90;20.13;;;19.30;99.90;;;;;;5014730;28;20524;-42
2021/07/27 05:08:01;;;;;;;23.35;18.95;;;19.30;99.90;;;;;;5011229;28;20033;-39
2021/07/27 05:10:26;;;;;;;27.98;19.63;;;19.30;99.90;;;;;;5017367;28;20029;-42
2021/07/27 05:12:53;;;;;;;25.27;19.63;;;19.40;99.90;;;;;;5009936;28;20418;-38
2021/07/27 05:15:18;;;;;;;26.65;21.20;;;19.40;99.90;;;;;;5006500;28;20010;-42
2021/07/27 05:17:44;;;;;;;22.88;19.35;;;19.40;99.90;;;;;;5026992;28;20032;-42
2021/07/27 05:20:12;;;;;;;23.48;18.33;;;19.40;99.90;;;;;;5018830;28;20018;-40
2021/07/27 05:22:38;;;;;;;25.77;19.77;;;19.40;99.90;;;;;;5031962;28;20079;-37
2021/07/27 05:25:04;;;;;;;24.38;19.10;;;19.30;99.90;;;;;;5021221;28;20439;-40
2021/07/27 05:27:33;;;;;;;23.33;17.75;;;19.40;99.90;;;;;;5032337;28;20033;-42
2021/07/27 05:29:59;;;;;;;21.77;16.77;;;19.30;99.90;;;;;;5019955;28;20018;-42
2021/07/27 05:32:24;;;;;;;21.95;17.88;;;19.30;99.90;;;;;;5031791;28;20037;-40
2021/07/27 05:34:50;;;;;;;23.20;19.02;;;19.20;99.90;;;;;;5021234;28;20105;-40
2021/07/27 05:37:16;;;;;;;22.38;17.48;;;19.20;99.90;;;;;;5031649;28;20349;-42
2021/07/27 05:39:42;;;;;;;22.90;18.48;;;19.20;99.90;;;;;;5023191;28;20111;-35
2021/07/27 05:42:07;;;;;;;23.58;17.65;;;19.20;99.90;;;;;;5029656;28;20033;-40
2021/07/27 05:44:33;;;;;;;23.85;19.30;;;19.10;99.90;;;;;;5024409;28;20026;-39
2021/07/27 05:47:02;;;;;;;22.50;17.55;;;19.10;99.90;;;;;;5027090;28;20021;-37
2021/07/27 05:49:28;;;;;;;25.23;20.08;;;19.10;99.90;;;;;;5027220;28;20029;-38
2021/07/27 05:51:55;;;;;;;24.77;19.35;;;19.10;99.90;;;;;;5023987;28;20473;-37
2021/07/27 05:54:21;;;;;;;22.90;18.38;;;19.10;99.90;;;;;;5029695;28;20024;-41
2021/07/27 05:56:51;;;;;;;18.08;15.40;;;19.10;99.90;;;;;;5021769;28;20468;-39
2021/07/27 05:59:17;;;;;;;19.02;15.95;;;19.10;99.90;;;;;;5030002;28;20022;-41
2021/07/27 06:01:43;;;;;;;18.00;14.57;;;19.20;99.90;;;;;;5020642;28;20030;-41
2021/07/27 06:04:09;;;;;;;14.80;12.32;;;19.20;99.90;;;;;;5030069;28;20021;-39
2021/07/27 06:06:35;;;;;;;22.48;17.17;;;19.30;99.90;;;;;;5018955;28;20081;-41
2021/07/27 06:09:03;;;;;;;18.20;14.45;;;19.30;99.90;;;;;;5011784;28;20017;-42
2021/07/27 06:11:38;;;;;;;18.77;14.55;;;19.30;99.90;;;;;;5023178;28;20041;-41
2021/07/27 06:14:06;;;;;;;16.67;13.32;;;19.40;99.90;;;;;;5011946;28;20089;-38
2021/07/27 06:16:37;;;;;;;17.70;14.10;;;19.50;99.90;;;;;;5023996;28;20108;-41
2021/07/27 06:19:04;;;;;;;15.35;12.85;;;19.50;99.90;;;;;;5011778;28;20073;-40
2021/07/27 06:21:30;;;;;;;20.08;16.85;;;19.60;99.90;;;;;;5023492;28;20026;-36
2021/07/27 06:23:55;;;;;;;19.77;16.15;;;19.60;99.90;;;;;;5021531;28;20026;-42
2021/07/27 06:26:21;;;;;;;21.08;15.50;;;19.70;99.90;;;;;;5020542;28;20022;-40
2021/07/27 06:28:46;;;;;;;21.73;18.77;;;19.70;99.90;;;;;;5028978;28;20048;-36
2021/07/27 06:31:12;;;;;;;21.52;17.27;;;19.80;99.90;;;;;;5022318;28;20393;-40
2021/07/27 06:33:43;;;;;;;21.80;17.27;;;19.80;99.90;;;;;;5025213;28;20441;-40
2021/07/27 06:36:09;;;;;;;19.45;16.08;;;19.80;99.90;;;;;;5025319;28;20033;-42
2021/07/27 06:38:35;;;;;;;18.45;14.98;;;19.90;99.90;;;;;;5023792;28;20168;-40
2021/07/27 06:41:04;;;;;;;17.42;14.18;;;19.90;99.90;;;;;;5027872;28;20445;-40
2021/07/27 06:43:29;;;;;;;15.60;13.82;;;20.00;99.90;;;;;;5021940;28;20451;-40
2021/07/27 06:45:55;;;;;;;20.23;16.35;;;20.10;99.90;;;;;;5029498;28;20105;-41
2021/07/27 06:48:24;;;;;;;16.98;13.90;;;20.20;99.90;;;;;;5019389;28;20096;-42
2021/07/27 06:50:51;;;;;;;19.77;16.75;;;20.20;99.90;;;;;;5029496;28;20385;-42
2021/07/27 06:53:17;;;;;;;17.05;14.98;;;20.20;99.90;;;;;;5019345;28;20116;-42
2021/07/27 06:55:43;;;;;;;17.20;14.60;;;20.30;99.90;;;;;;5030513;28;20429;-43
2021/07/27 06:58:09;;;;;;;19.10;15.05;;;20.30;99.90;;;;;;5017984;28;20018;-41
2021/07/27 07:00:34;;;;;;;15.75;13.13;;;20.40;99.90;;;;;;5029813;28;20037;-40
2021/07/27 07:03:01;;;;;;;17.40;15.20;;;20.50;99.90;;;;;;5018693;28;20466;-42
2021/07/27 07:05:26;;;;;;;17.08;13.93;;;20.60;99.90;;;;;;5030285;28;20156;-36
2021/07/27 07:07:52;;;;;;;18.05;14.07;;;20.60;99.90;;;;;;5019423;28;20022;-41
2021/07/27 07:10:26;;;;;;;16.27;14.48;;;20.70;99.90;;;;;;5028845;28;20025;-41
2021/07/27 07:12:52;;;;;;;18.00;13.55;;;20.70;99.90;;;;;;5021069;28;20038;-41
2021/07/27 07:15:18;;;;;;;16.70;12.98;;;20.80;99.90;;;;;;5027007;28;20033;-42
2021/07/27 07:17:43;;;;;;;20.92;16.45;;;20.90;99.90;;;;;;5023105;28;20281;-43
2021/07/27 07:20:09;;;;;;;19.42;16.70;;;20.90;99.90;;;;;;5024889;28;20146;-41
2021/07/27 07:22:35;;;;;;;20.05;14.23;;;20.90;99.90;;;;;;5024483;28;20079;-42
2021/07/27 07:25:01;;;;;;;19.20;16.00;;;21.00;99.90;;;;;;5028393;28;20033;-37
2021/07/27 07:27:26;;;;;;;21.40;16.27;;;21.00;99.90;;;;;;5027973;28;20032;-42
2021/07/27 07:29:53;;;;;;;18.67;14.52;;;20.90;99.90;;;;;;5019438;28;20021;-38
2021/07/27 07:32:19;;;;;;;17.52;13.68;;;20.90;99.90;;;;;;5028580;28;20063;-42
2021/07/27 07:34:44;;;;;;;18.65;15.10;;;20.90;99.90;;;;;;5019045;28;20120;-43
2021/07/27 07:37:10;;;;;;;17.73;15.77;;;21.00;99.90;;;;;;5029049;28;20036;-41
2021/07/27 07:39:36;;;;;;;16.23;13.85;;;21.00;99.90;;;;;;5017598;28;20021;-44
2021/07/27 07:42:04;;;;;;;19.48;15.40;;;21.10;99.90;;;;;;5030773;28;20083;-43
2021/07/27 07:44:30;;;;;;;17.80;14.23;;;21.10;99.90;;;;;;5015560;28;20382;-44
2021/07/27 07:46:55;;;;;;;16.17;13.70;;;21.10;99.90;;;;;;5030462;28;20040;-43
2021/07/27 07:49:21;;;;;;;18.50;16.30;;;21.10;99.90;;;;;;5017851;28;20032;-41
2021/07/27 07:51:48;;;;;;;19.70;16.73;;;21.10;99.90;;;;;;5029215;28;20501;-41
2021/07/27 07:54:17;;;;;;;19.52;16.88;;;21.20;99.90;;;;;;5020666;28;20021;-41
2021/07/27 07:56:46;;;;;;;17.42;14.68;;;21.30;99.90;;;;;;5026606;28;20025;-45
2021/07/27 07:59:13;;;;;;;16.95;14.27;;;21.30;99.90;;;;;;5021776;28;20030;-43
2021/07/27 08:01:39;;;;;;;17.13;15.27;;;21.50;99.90;;;;;;5025297;28;20561;-41
2021/07/27 08:04:05;;;;;;;15.43;13.80;;;21.50;99.90;;;;;;5023791;28;20450;-42
2021/07/27 08:06:31;;;;;;;19.77;16.30;;;21.50;99.90;;;;;;5022752;28;20052;-41
2021/07/27 08:08:57;;;;;;;19.55;16.25;;;21.40;99.90;;;;;;5026940;28;20026;-42
2021/07/27 08:11:25;;;;;;;19.27;16.23;;;21.40;99.90;;;;;;5018598;28;20026;-43
2021/07/27 08:13:53;;;;;;;16.90;14.38;;;21.40;99.90;;;;;;5028792;28;20031;-41
2021/07/27 08:16:19;;;;;;;20.67;17.25;;;21.30;99.90;;;;;;5018112;28;20093;-42
2021/07/27 08:18:44;;;;;;;16.08;14.38;;;21.30;99.90;;;;;;5027806;28;20108;-40
2021/07/27 08:21:10;;;;;;;19.85;15.32;;;21.30;99.90;;;;;;5018168;28;20021;-45
2021/07/27 08:23:40;;;;;;;19.35;14.75;;;21.30;99.90;;;;;;5022876;28;20108;-45
2021/07/27 08:26:05;;;;;;;15.63;14.05;;;21.30;99.90;;;;;;5020391;28;20034;-44
2021/07/27 08:28:31;;;;;;;17.08;15.15;;;21.40;99.90;;;;;;5009231;28;20141;-40
2021/07/27 08:30:57;;;;;;;13.98;12.55;;;21.40;99.90;;;;;;5021496;28;20029;-40
2021/07/27 08:33:23;;;;;;;17.98;13.38;;;21.50;99.90;;;;;;5008634;28;20018;-41
2021/07/27 08:35:49;;;;;;;18.90;14.27;;;21.60;99.90;;;;;;5019588;28;20033;-43
2021/07/27 08:38:14;;;;;;;16.13;14.40;;;21.70;99.90;;;;;;5010283;28;20456;-43
2021/07/27 08:40:40;;;;;;;16.58;13.57;;;21.90;99.90;;;;;;5016712;28;20032;-41
2021/07/27 08:43:08;;;;;;;16.83;13.65;;;22.00;99.90;;;;;;5013447;28;20488;-40
2021/07/27 08:45:34;;;;;;;13.50;11.73;;;22.20;99.90;;;;;;5014584;28;20539;-42
2021/07/27 08:48:00;;;;;;;15.82;13.52;;;22.30;99.90;;;;;;5013681;28;20022;-38
2021/07/27 08:50:26;;;;;;;16.52;14.63;;;22.50;99.90;;;;;;5012399;28;20392;-45
2021/07/27 08:52:53;;;;;;;16.40;14.23;;;22.60;99.90;;;;;;5017599;28;20147;-44
2021/07/27 08:55:19;;;;;;;19.95;15.90;;;22.70;99.90;;;;;;5009726;28;20047;-41
2021/07/27 08:57:57;;;;;;;16.75;14.95;;;22.70;99.90;;;;;;5020301;28;20026;-40
2021/07/27 09:00:24;;;;;;;18.20;15.68;;;22.70;99.90;;;;;;5008617;28;20531;-42
2021/07/27 09:02:49;;;;;;;17.67;14.88;;;22.60;99.90;;;;;;5020452;28;20030;-44
2021/07/27 09:05:15;;;;;;;15.75;14.15;;;22.60;99.90;;;;;;5010332;28;20032;-46
2021/07/27 09:07:41;;;;;;;14.63;13.13;;;22.70;99.90;;;;;;5019395;28;20503;-42
2021/07/27 09:10:21;;;;;;;15.38;13.77;;;22.70;99.90;;;;;;5009718;28;20022;-43
2021/07/27 09:12:58;;;;;;;16.45;13.68;;;22.70;99.90;;;;;;5017157;28;20075;-45
2021/07/27 09:15:26;;;;;;;14.98;13.48;;;22.80;99.90;;;;;;5027217;28;20104;-40
2021/07/27 09:18:03;;;;;;;14.20;11.45;;;22.80;99.90;;;;;;5015568;28;20033;-39
2021/07/27 09:20:34;;;;;;;13.43;12.02;;;22.90;99.70;;;;;;5028599;28;20033;-40
2021/07/27 09:23:04;;;;;;;13.55;12.18;;;23.00;99.60;;;;;;5016243;28;20049;-44
2021/07/27 09:25:31;;;;;;;13.18;11.65;;;23.10;99.60;;;;;;4988499;28;20113;-43
2021/07/27 09:28:00;;;;;;;12.52;10.90;;;23.30;99.10;;;;;;5019687;28;20036;-40
2021/07/27 09:30:26;;;;;;;15.55;11.95;;;23.40;98.90;;;;;;5008294;28;20351;-38
2021/07/27 09:32:52;;;;;;;11.20;10.00;;;23.40;98.80;;;;;;5020698;28;20504;-40
2021/07/27 09:35:30;;;;;;;11.32;10.13;;;23.40;98.80;;;;;;5008818;28;20026;-40
2021/07/27 09:38:08;;;;;;;10.52;9.52;;;23.40;98.50;;;;;;5020400;28;20111;-41
2021/07/27 09:40:37;;;;;;;12.38;11.18;;;23.40;98.30;;;;;;4988176;28;20400;-43
2021/07/27 09:43:04;;;;;;;10.30;9.27;;;23.50;98.10;;;;;;5014078;28;20033;-41
2021/07/27 09:45:29;;;;;;;12.52;11.27;;;23.50;98.00;;;;;;5009813;28;20025;-42
2021/07/27 09:47:55;;;;;;;11.05;9.85;;;23.60;97.50;;;;;;5016869;28;20494;-43
2021/07/27 09:50:25;;;;;;;9.23;8.32;;;23.80;97.70;;;;;;5011837;28;20037;-38
2021/07/27 09:52:51;;;;;;;10.30;9.30;;;23.90;97.60;;;;;;5015061;28;20485;-39
2021/07/27 09:55:21;;;;;;;9.15;8.30;;;24.00;97.50;;;;;;5014536;28;20022;-43
2021/07/27 09:57:58;;;;;;;10.68;9.57;;;24.10;97.30;;;;;;5012806;28;20540;-46
2021/07/27 10:00:27;;;;;;;10.48;9.35;;;24.10;96.80;;;;;;5014741;28;20033;-43
2021/07/27 10:02:56;;;;;;;10.43;9.32;;;24.10;96.90;;;;;;5012041;28;20828;-42
2021/07/27 10:05:24;;;;;;;10.18;9.15;;;24.20;97.10;;;;;;5015391;28;20057;-42
2021/07/27 10:07:57;;;;;;;10.55;8.60;;;24.20;97.00;;;;;;5013322;28;20033;-42
2021/07/27 10:10:37;;;;;;;10.20;9.05;;;24.30;97.00;;;;;;5020637;28;20028;-40
2021/07/27 10:13:14;;;;;;;9.85;8.90;;;24.30;96.80;;;;;;5014125;28;20030;-43
2021/07/27 10:15:45;;;;;;;8.77;7.85;;;24.40;96.80;;;;;;5020087;28;20048;-44
2021/07/27 10:18:12;;;;;;;8.85;7.95;;;24.40;96.90;;;;;;5013403;28;20104;-44
2021/07/27 10:20:39;;;;;;;9.07;8.02;;;24.40;96.50;;;;;;5022151;28;20061;-42
2021/07/27 10:23:19;;;;;;;9.35;7.93;;;24.40;96.70;;;;;;5013624;28;20010;-41
2021/07/27 10:25:57;;;;;;;8.70;7.80;;;24.40;96.90;;;;;;5012558;28;20104;-42
2021/07/27 10:28:25;;;;;;;9.07;8.18;;;24.50;96.70;;;;;;5029288;28;20032;-42
2021/07/27 10:31:05;;;;;;;9.45;8.45;;;24.40;96.70;;;;;;5020646;28;20091;-41
2021/07/27 10:33:36;;;;;;;9.65;8.73;;;24.30;96.80;;;;;;5029229;28;20065;-43
2021/07/27 10:36:02;;;;;;;9.90;8.90;;;24.30;96.50;;;;;;5020741;28;20036;-44
2021/07/27 10:38:36;;;;;;;11.23;9.57;;;24.20;96.60;;;;;;5028696;28;20381;-44
2021/07/27 10:41:16;;;;;;;10.45;9.40;;;24.10;96.70;;;;;;5020101;28;20108;-41
2021/07/27 10:43:42;;;;;;;9.13;8.32;;;23.90;97.20;;;;;;5029532;28;20025;-39
2021/07/27 10:46:10;;;;;;;11.32;10.13;;;23.80;97.00;;;;;;5020306;28;20024;-43
2021/07/27 10:48:38;;;;;;;10.27;9.27;;;23.80;97.10;;;;;;5030207;28;20018;-39
2021/07/27 10:51:05;;;;;;;11.57;10.38;;;23.70;97.20;;;;;;5019498;28;20044;-40
2021/07/27 10:53:33;;;;;;;11.02;10.00;;;23.80;97.20;;;;;;5030049;28;20428;-44
2021/07/27 10:56:10;;;;;;;10.10;9.10;;;23.80;97.20;;;;;;5018710;28;20018;-44
2021/07/27 10:58:36;;;;;;;10.52;9.43;;;23.90;97.20;;;;;;5031278;28;20377;-45
2021/07/27 11:01:09;;;;;;;11.23;9.38;;;24.00;97.20;;;;;;5018207;28;20370;-43
2021/07/27 11:03:35;;;;;;;10.80;9.80;;;24.00;97.10;;;;;;5030436;28;20075;-41
2021/07/27 11:06:04;;;;;;;9.20;8.40;;;24.00;96.90;;;;;;5018260;28;20042;-43
2021/07/27 11:08:31;;;;;;;10.50;9.50;;;23.90;96.90;;;;;;4990676;28;20351;-39
2021/07/27 11:11:10;;;;;;;11.07;9.75;;;23.80;96.90;;;;;;5015401;28;20044;-42
2021/07/27 11:13:39;;;;;;;11.65;10.52;;;23.70;97.10;;;;;;5009662;28;20066;-45
2021/07/27 11:16:05;;;;;;;10.57;9.60;;;23.60;97.20;;;;;;5021290;28;20579;-42
2021/07/27 11:18:31;;;;;;;10.20;8.88;;;23.60;97.30;;;;;;5012076;28;20109;-42
2021/07/27 11:20:59;;;;;;;11.25;10.05;;;23.60;97.40;;;;;;5018180;28;20045;-43
2021/07/27 11:23:30;;;;;;;11.20;10.10;;;23.80;97.30;;;;;;5016502;28;20068;-40
2021/07/27 11:25:57;;;;;;;10.10;9.18;;;24.10;97.10;;;;;;5023998;28;20109;-40
2021/07/27 11:28:39;;;;;;;11.13;9.18;;;24.40;96.70;;;;;;5023288;28;20445;-41
2021/07/27 11:31:20;;;;;;;10.95;9.40;;;24.70;96.50;;;;;;5024439;28;20030;-42
2021/07/27 11:33:52;;;;;;;11.05;9.48;;;24.80;96.70;;;;;;5025819;28;20061;-42
2021/07/27 11:36:23;;;;;;;11.13;9.75;;;24.90;96.20;;;;;;5023149;28;20049;-42
2021/07/27 11:38:48;;;;;;;17.15;10.23;;;24.70;96.40;;;;;;5025177;28;20033;-41
2021/07/27 11:41:18;;;;;;;8.38;5.35;;;24.10;97.50;;;;;;5025636;28;20025;-40
2021/07/27 11:43:44;;;;;;;5.75;3.90;;;22.90;98.40;;;;;;5021776;28;20429;-42
2021/07/27 11:46:19;;;;;;;9.48;4.80;;;21.60;99.70;;;;;;5028233;28;20469;-43
2021/07/27 11:48:52;;;;;;;6.32;4.20;;;20.60;99.90;;;;;;5019912;28;20415;-43
2021/07/27 11:51:32;;;;;;;6.00;4.90;;;19.90;99.90;;;;;;5027629;28;20385;-44
2021/07/27 11:53:58;;;;;;;6.15;4.60;;;19.40;99.90;;;;;;5022247;28;20561;-44
2021/07/27 11:56:24;;;;;;;8.05;5.80;;;19.00;99.90;;;;;;5027154;28;20033;-44
2021/07/27 11:59:06;;;;;;;10.60;5.15;;;18.80;99.90;;;;;;5019653;28;20100;-44
2021/07/27 12:01:39;;;;;;;6.87;5.30;;;18.40;99.90;;;;;;5027402;28;20018;-45
2021/07/27 12:04:05;;;;;;;5.47;4.97;;;18.20;99.90;;;;;;5009375;28;20028;-46
2021/07/27 12:06:31;;;;;;;5.78;4.88;;;18.10;99.90;;;;;;5027052;28;20042;-47
2021/07/27 12:09:02;;;;;;;6.63;4.57;;;18.20;99.90;;;;;;5018823;28;20022;-47
2021/07/27 12:11:28;;;;;;;7.63;5.45;;;18.20;99.90;;;;;;5027038;28;20018;-46
2021/07/27 12:13:53;;;;;;;5.72;5.13;;;18.40;99.90;;;;;;5018505;28;20419;-46
2021/07/27 12:16:19;;;;;;;5.72;4.72;;;18.50;99.90;;;;;;5029313;28;20083;-44
2021/07/27 12:18:44;;;;;;;4.40;4.00;;;18.70;99.90;;;;;;5015801;28;20116;-44
2021/07/27 12:21:12;;;;;;;5.07;4.25;;;19.00;99.90;;;;;;5029970;28;20472;-46
2021/07/27 12:23:38;;;;;;;4.80;4.30;;;19.20;99.90;;;;;;5019156;28;20416;-46
2021/07/27 12:26:05;;;;;;;5.95;4.07;;;19.50;99.90;;;;;;5029240;28;20468;-46
2021/07/27 12:28:30;;;;;;;4.07;3.67;;;19.70;99.90;;;;;;5018176;28;20363;-46
2021/07/27 12:30:56;;;;;;;4.10;3.70;;;19.90;99.90;;;;;;5026292;28;20030;-46
2021/07/27 12:33:21;;;;;;;4.20;3.80;;;20.00;99.90;;;;;;5020850;28;20564;-42
2021/07/27 12:35:47;;;;;;;4.13;3.63;;;20.20;99.90;;;;;;5024685;28;20018;-46
2021/07/27 12:38:12;;;;;;;4.00;3.58;;;20.20;99.90;;;;;;5023773;28;20050;-45
2021/07/27 12:40:40;;;;;;;4.18;3.78;;;20.30;99.90;;;;;;5020748;28;20035;-44
2021/07/27 12:43:05;;;;;;;3.45;3.15;;;20.40;99.90;;;;;;5026547;28;20092;-45
2021/07/27 12:45:32;;;;;;;4.10;3.70;;;20.50;99.90;;;;;;5018404;28;20668;-46
2021/07/27 12:48:01;;;;;;;4.60;3.60;;;20.50;99.90;;;;;;5028055;28;20026;-46
2021/07/27 12:50:27;;;;;;;4.47;3.67;;;20.70;99.90;;;;;;5017798;28;20497;-46
2021/07/27 12:52:53;;;;;;;5.75;4.07;;;20.70;99.90;;;;;;5027078;28;20076;-44
2021/07/27 12:55:21;;;;;;;5.55;4.55;;;20.70;99.90;;;;;;5017928;28;20018;-42